Time;durP1;ratioP1;P1;durP2;ratioP2;P2;SDS_P1;SDS_P2;PMS_P1;PMS_P2;Temp;Humidity;BMP_temperature;BMP_pressure;BME280_temperature;BME280_humidity;BME280_pressure;Samples;Min_cycle;Max_cycle;Signal;HPM_P1;HPM_P2
2022/02/28 00:00:19;;;;;;;7.65;4.13;;;;;;;-0.59;100.00;95262.56;5112413;27;20150;-47
2022/02/28 00:02:48;;;;;;;6.97;4.03;;;;;;;-0.57;100.00;95259.06;5113223;27;20104;-48
2022/02/28 00:05:15;;;;;;;12.43;4.50;;;;;;;-0.50;100.00;95257.50;5111702;27;20465;-46
2022/02/28 00:07:44;;;;;;;5.55;2.88;;;;;;;-0.57;100.00;95249.63;5115043;27;20044;-46
2022/02/28 00:10:11;;;;;;;10.80;3.90;;;;;;;-0.59;100.00;95259.22;5112527;27;20747;-46
2022/02/28 00:12:38;;;;;;;5.57;3.88;;;;;;;-0.53;100.00;95275.72;5112070;27;20051;-48
2022/02/28 00:15:07;;;;;;;5.35;2.70;;;;;;;-0.63;100.00;95270.69;5112956;27;20413;-46
2022/02/28 00:17:34;;;;;;;6.65;3.65;;;;;;;-0.67;100.00;95272.75;5112587;27;20035;-47
2022/02/28 00:20:03;;;;;;;8.90;3.83;;;;;;;-0.61;100.00;95274.72;5112381;27;20047;-46
2022/02/28 00:22:30;;;;;;;11.00;5.35;;;;;;;-0.59;100.00;95262.56;5112862;27;20069;-47
2022/02/28 00:24:57;;;;;;;12.77;4.57;;;;;;;-0.68;100.00;95249.91;5112455;27;20127;-48
2022/02/28 00:27:24;;;;;;;3.75;2.08;;;;;;;-0.64;100.00;95254.53;5110465;27;20065;-46
2022/02/28 00:29:52;;;;;;;12.35;4.93;;;;;;;-0.65;100.00;95252.13;5111578;27;20050;-48
2022/02/28 00:32:23;;;;;;;8.35;4.30;;;;;;;-0.70;100.00;95250.03;5113110;27;20062;-48
2022/02/28 00:34:51;;;;;;;11.30;4.97;;;;;;;-0.72;100.00;95246.84;5111683;27;20118;-50
2022/02/28 00:37:19;;;;;;;9.15;5.07;;;;;;;-0.67;100.00;95248.91;5112185;27;20046;-48
2022/02/28 00:39:46;;;;;;;4.05;2.72;;;;;;;-0.79;100.00;95256.84;5113417;27;20047;-46
2022/02/28 00:42:14;;;;;;;3.53;2.38;;;;;;;-0.85;100.00;95251.53;5111044;27;20058;-46
2022/02/28 00:44:41;;;;;;;6.78;4.40;;;;;;;-0.87;100.00;95248.31;5110908;27;20071;-49
2022/02/28 00:47:08;;;;;;;12.23;4.75;;;;;;;-0.81;100.00;95252.81;5114224;27;20039;-48
2022/02/28 00:49:39;;;;;;;5.55;3.00;;;;;;;-0.93;100.00;95238.69;5112725;27;20066;-47
2022/02/28 00:52:07;;;;;;;9.10;5.50;;;;;;;-1.04;100.00;95235.44;5090131;27;20564;-49
2022/02/28 00:54:34;;;;;;;7.43;4.85;;;;;;;-0.90;100.00;95240.94;5088213;27;20051;-47
2022/02/28 00:57:01;;;;;;;11.63;5.20;;;;;;;-0.99;100.00;95225.56;5110786;27;20656;-47
2022/02/28 00:59:28;;;;;;;4.65;3.08;;;;;;;-1.01;100.00;95227.47;5111982;27;20055;-48
2022/02/28 01:01:55;;;;;;;10.68;5.18;;;;;;;-1.00;100.00;95229.06;5110980;27;20042;-49
2022/02/28 01:04:23;;;;;;;6.53;3.70;;;;;;;-1.04;100.00;95222.66;5114300;27;20052;-49
2022/02/28 01:06:50;;;;;;;9.57;5.57;;;;;;;-1.15;100.00;95225.44;5112531;27;20054;-49
2022/02/28 01:09:17;;;;;;;2.38;1.60;;;;;;;-1.30;100.00;95214.13;5094841;27;20040;-50
2022/02/28 01:11:45;;;;;;;6.05;3.97;;;;;;;-1.25;100.00;95210.19;5091652;28;20051;-50
2022/02/28 01:14:12;;;;;;;3.58;3.03;;;;;;;-1.26;100.00;95207.75;5109450;27;20047;-50
2022/02/28 01:16:39;;;;;;;6.28;3.92;;;;;;;-1.28;100.00;95214.78;5097690;27;20086;-48
2022/02/28 01:19:06;;;;;;;7.18;3.20;;;;;;;-1.35;100.00;95205.16;5109946;27;20118;-47
2022/02/28 01:21:32;;;;;;;7.20;4.47;;;;;;;-1.40;100.00;95201.44;5109371;27;20059;-47
2022/02/28 01:23:59;;;;;;;2.90;1.95;;;;;;;-1.40;100.00;95207.34;5113388;27;20096;-46
2022/02/28 01:26:26;;;;;;;6.22;4.10;;;;;;;-1.43;100.00;95202.53;5108982;27;20487;-49
2022/02/28 01:28:53;;;;;;;3.97;2.58;;;;;;;-1.46;100.00;95202.84;5113252;27;20039;-46
2022/02/28 01:31:20;;;;;;;3.60;2.38;;;;;;;-1.53;100.00;95196.72;5110850;27;20063;-46
2022/02/28 01:33:46;;;;;;;6.95;4.97;;;;;;;-1.55;100.00;95188.38;5092405;27;20044;-47
2022/02/28 01:36:13;;;;;;;8.35;3.97;;;;;;;-1.53;100.00;95189.06;5087684;27;20035;-47
2022/02/28 01:38:40;;;;;;;4.80;2.67;;;;;;;-1.78;100.00;95158.19;5111267;27;20032;-48
2022/02/28 01:41:07;;;;;;;7.15;3.72;;;;;;;-1.52;100.00;95193.19;5109496;27;20043;-48
2022/02/28 01:43:33;;;;;;;1.83;1.60;;;;;;;-1.57;100.00;95191.09;5108363;27;20043;-49
2022/02/28 01:46:00;;;;;;;5.53;4.13;;;;;;;-1.56;100.00;95186.78;5109656;27;20035;-52
2022/02/28 01:48:27;;;;;;;3.58;1.95;;;;;;;-1.65;100.00;95182.56;5093767;27;20043;-48
2022/02/28 01:50:57;;;;;;;4.00;3.08;;;;;;;-1.61;100.00;95177.00;5085544;28;20122;-47
2022/02/28 01:53:24;;;;;;;3.28;2.63;;;;;;;-1.60;100.00;95185.47;5090020;27;20504;-48
2022/02/28 01:55:50;;;;;;;4.20;3.25;;;;;;;-1.65;100.00;95178.25;5086576;28;20050;-47
2022/02/28 01:58:17;;;;;;;7.43;5.13;;;;;;;-1.59;100.00;95179.41;5089528;27;20139;-47
2022/02/28 02:00:44;;;;;;;10.05;4.63;;;;;;;-1.60;100.00;95182.94;5089297;27;20076;-47
2022/02/28 02:03:11;;;;;;;5.72;3.03;;;;;;;-1.47;100.00;95185.09;5110004;27;20046;-48
2022/02/28 02:05:39;;;;;;;3.50;1.90;;;;;;;-1.57;100.00;95174.94;5092176;28;20039;-47
2022/02/28 02:08:08;;;;;;;5.70;3.67;;;;;;;-1.54;100.00;95180.56;5094393;28;20039;-52
2022/02/28 02:10:38;;;;;;;6.65;3.78;;;;;;;-1.61;100.00;95168.53;5087691;27;20505;-47
2022/02/28 02:13:07;;;;;;;3.92;2.45;;;;;;;-1.63;100.00;95175.56;5090580;28;20048;-49
2022/02/28 02:15:35;;;;;;;6.47;3.13;;;;;;;-1.60;100.00;95175.25;5089715;27;20047;-48
2022/02/28 02:18:05;;;;;;;4.53;2.63;;;;;;;-1.57;100.00;95164.72;5087810;27;20032;-50
2022/02/28 02:20:34;;;;;;;8.70;3.95;;;;;;;-1.57;100.00;95170.66;5109333;27;20055;-49
2022/02/28 02:23:05;;;;;;;10.95;5.00;;;;;;;-1.50;100.00;95165.75;5085731;27;20441;-46
2022/02/28 02:25:33;;;;;;;8.18;4.32;;;;;;;-1.48;100.00;95158.72;5109225;28;20052;-50
2022/02/28 02:28:00;;;;;;;8.00;3.03;;;;;;;-1.52;100.00;95162.53;5086267;27;20039;-48
2022/02/28 02:30:28;;;;;;;6.43;4.53;;;;;;;-1.54;100.00;95167.00;5091530;28;20112;-51
2022/02/28 02:32:57;;;;;;;8.20;4.03;;;;;;;-1.53;100.00;95160.97;5089626;28;20051;-48
2022/02/28 02:35:25;;;;;;;4.45;2.97;;;;;;;-1.51;100.00;95148.84;5088490;28;20046;-47
2022/02/28 02:37:51;;;;;;;4.70;3.05;;;;;;;-1.53;100.00;95158.41;5089724;28;20138;-47
2022/02/28 02:40:19;;;;;;;5.43;3.42;;;;;;;-1.40;100.00;95165.69;5109571;28;20047;-47
2022/02/28 02:42:46;;;;;;;4.32;2.30;;;;;;;-1.40;100.00;95161.38;5093234;28;20130;-48
2022/02/28 02:45:15;;;;;;;3.15;2.33;;;;;;;-1.44;100.00;95160.06;5087507;28;20077;-48
2022/02/28 02:47:42;;;;;;;4.75;3.35;;;;;;;-1.43;100.00;95161.66;5088344;28;20047;-48
2022/02/28 02:50:11;;;;;;;3.92;2.95;;;;;;;-1.39;100.00;95162.97;5088356;28;20040;-48
2022/02/28 02:52:38;;;;;;;5.78;3.08;;;;;;;-1.24;100.00;95164.97;5091160;28;20047;-47
2022/02/28 02:55:06;;;;;;;5.63;3.05;;;;;;;-1.21;100.00;95159.56;5087471;28;20508;-47
2022/02/28 02:57:33;;;;;;;7.20;4.40;;;;;;;-1.27;100.00;95157.63;5088248;28;20047;-51
2022/02/28 03:00:08;;;;;;;8.40;4.18;;;;;;;-1.17;100.00;95160.88;5087144;28;20043;-52
2022/02/28 03:02:53;;;;;;;6.85;3.13;;;;;;;-1.11;100.00;95160.28;5110252;27;20158;-49
2022/02/28 03:05:21;;;;;;;19.70;5.57;;;;;;;-1.03;100.00;95162.88;5116979;27;20047;-49
2022/02/28 03:07:48;;;;;;;10.23;4.22;;;;;;;-1.02;100.00;95158.56;5093774;27;20047;-51
2022/02/28 03:10:16;;;;;;;9.25;4.00;;;;;;;-1.12;100.00;95148.44;5091006;27;20039;-51
2022/02/28 03:12:43;;;;;;;10.32;5.32;;;;;;;-1.00;100.00;95172.81;5113686;27;20402;-48
2022/02/28 03:15:10;;;;;;;7.47;4.00;;;;;;;-1.00;100.00;95162.56;5090297;27;20169;-47
2022/02/28 03:17:37;;;;;;;9.98;5.00;;;;;;;-1.04;100.00;95153.63;5118195;27;20043;-47
2022/02/28 03:20:04;;;;;;;6.25;3.25;;;;;;;-1.00;100.00;95162.56;5093172;27;20038;-48
2022/02/28 03:22:31;;;;;;;7.88;3.60;;;;;;;-0.88;100.00;95169.97;5113294;27;20048;-48
2022/02/28 03:25:00;;;;;;;12.23;4.80;;;;;;;-0.87;100.00;95167.28;5093970;27;20113;-48
2022/02/28 03:27:27;;;;;;;12.25;5.85;;;;;;;-0.88;100.00;95164.88;5091676;28;20048;-48
2022/02/28 03:29:55;;;;;;;11.75;5.15;;;;;;;-0.80;100.00;95167.47;5091016;27;20067;-48
2022/02/28 03:32:22;;;;;;;9.80;3.78;;;;;;;-0.82;100.00;95164.28;5091064;27;20043;-47
2022/02/28 03:34:49;;;;;;;10.73;6.30;;;;;;;-0.79;100.00;95175.00;5091175;27;20043;-50
2022/02/28 03:37:16;;;;;;;8.73;3.92;;;;;;;-0.82;100.00;95179.63;5095771;27;20099;-49
2022/02/28 03:39:43;;;;;;;8.73;4.40;;;;;;;-0.99;100.00;95174.41;5113608;27;20127;-48
2022/02/28 03:42:10;;;;;;;7.78;3.92;;;;;;;-0.92;100.00;95178.91;5090687;27;20047;-48
2022/02/28 03:44:37;;;;;;;11.55;5.93;;;;;;;-0.90;100.00;95184.69;5089894;27;20051;-49
2022/02/28 03:47:07;;;;;;;9.25;4.05;;;;;;;-0.91;100.00;95180.53;5094128;27;20076;-48
2022/02/28 03:49:54;;;;;;;7.43;4.15;;;;;;;-0.85;100.00;95187.59;5084992;27;20075;-51
2022/02/28 03:52:31;;;;;;;10.13;3.60;;;;;;;-0.92;100.00;95194.25;5090185;27;20048;-49
2022/02/28 03:55:05;;;;;;;6.78;3.60;;;;;;;-1.19;100.00;95188.31;5093196;27;20568;-48
2022/02/28 03:57:35;;;;;;;5.47;3.03;;;;;;;-1.22;100.00;95193.75;5094938;27;20047;-47
2022/02/28 04:00:05;;;;;;;7.30;3.17;;;;;;;-1.19;100.00;95201.94;5090339;27;20569;-49
2022/02/28 04:02:39;;;;;;;5.05;3.13;;;;;;;-1.26;100.00;95198.38;5112298;27;20079;-47
2022/02/28 04:05:07;;;;;;;6.47;3.22;;;;;;;-1.18;100.00;95192.50;5088513;27;20490;-47
2022/02/28 04:07:34;;;;;;;5.40;3.20;;;;;;;-1.10;100.00;95207.09;5112495;27;20400;-47
2022/02/28 04:10:03;;;;;;;5.18;3.42;;;;;;;-1.03;100.00;95202.97;5089342;27;20544;-47
2022/02/28 04:12:31;;;;;;;10.98;5.47;;;;;;;-0.99;100.00;95194.88;5093249;27;20047;-50
2022/02/28 04:14:58;;;;;;;7.40;3.63;;;;;;;-0.88;100.00;95195.56;5089909;27;20036;-47
2022/02/28 04:17:25;;;;;;;6.43;3.92;;;;;;;-0.79;100.00;95194.69;5087405;27;20053;-47
2022/02/28 04:20:12;;;;;;;5.47;3.13;;;;;;;-0.72;100.00;95190.56;5111427;27;20052;-48
2022/02/28 04:22:41;;;;;;;8.02;3.33;;;;;;;-0.67;100.00;95187.53;5093572;27;20105;-49
2022/02/28 04:25:09;;;;;;;10.35;4.28;;;;;;;-0.70;100.00;95192.94;5112411;27;20040;-48
2022/02/28 04:27:37;;;;;;;5.97;3.63;;;;;;;-0.80;100.00;95200.72;5090105;27;20047;-51
2022/02/28 04:30:06;;;;;;;6.25;3.22;;;;;;;-0.70;100.00;95206.56;5092661;27;20131;-48
2022/02/28 04:32:34;;;;;;;8.35;2.88;;;;;;;-0.81;100.00;95196.56;5094196;27;20536;-49
2022/02/28 04:35:04;;;;;;;6.93;3.90;;;;;;;-0.83;100.00;95208.69;5091177;27;20505;-49
2022/02/28 04:37:33;;;;;;;5.03;3.20;;;;;;;-0.94;100.00;95206.41;5092227;27;20493;-51
2022/02/28 04:40:01;;;;;;;4.97;3.58;;;;;;;-1.03;100.00;95219.13;5089875;27;20166;-47
2022/02/28 04:42:31;;;;;;;7.20;3.97;;;;;;;-1.08;100.00;95205.19;5086751;27;20074;-47
2022/02/28 04:44:58;;;;;;;17.77;9.07;;;;;;;-1.03;100.00;95208.88;5089602;27;20040;-49
2022/02/28 04:47:25;;;;;;;9.57;4.88;;;;;;;-0.92;100.00;95214.72;5087776;27;20048;-48
2022/02/28 04:50:10;;;;;;;7.22;3.40;;;;;;;-0.98;100.00;95216.13;5110628;27;20112;-49
2022/02/28 04:52:39;;;;;;;5.70;3.03;;;;;;;-0.98;100.00;95206.69;5096644;27;20051;-47
2022/02/28 04:55:06;;;;;;;5.80;3.40;;;;;;;-0.88;100.00;95210.91;5089006;27;20106;-47
2022/02/28 04:57:39;;;;;;;17.40;9.43;;;;;;;-0.80;100.00;95218.63;5092884;27;20532;-48
2022/02/28 05:00:08;;;;;;;7.88;4.43;;;;;;;-0.77;100.00;95213.22;5091098;27;20485;-47
2022/02/28 05:02:38;;;;;;;5.25;2.90;;;;;;;-0.66;100.00;95223.19;5090541;27;20047;-47
2022/02/28 05:05:15;;;;;;;20.33;10.32;;;;;;;-0.65;100.00;95222.25;5090054;27;20122;-50
2022/02/28 05:07:41;;;;;;;26.10;10.20;;;;;;;-0.56;100.00;95224.84;5115432;27;20039;-47
2022/02/28 05:10:09;;;;;;;23.02;10.68;;;;;;;-0.49;100.00;95230.94;5111879;27;20127;-48
2022/02/28 05:12:36;;;;;;;14.43;7.07;;;;;;;-0.45;100.00;95229.69;5084501;28;20520;-49
2022/02/28 05:15:03;;;;;;;13.15;6.20;;;;;;;-0.43;100.00;95230.34;5085284;28;20332;-50
2022/02/28 05:17:30;;;;;;;12.88;6.45;;;;;;;-0.36;100.00;95226.22;5084277;28;20043;-47
2022/02/28 05:19:58;;;;;;;4.28;2.45;;;;;;;-0.30;100.00;95229.94;5085072;28;20595;-52
2022/02/28 05:22:26;;;;;;;3.25;1.75;;;;;;;-0.26;100.00;95232.00;5083773;28;20055;-47
2022/02/28 05:24:54;;;;;;;2.33;1.20;;;;;;;-0.13;100.00;95235.91;5083528;28;20052;-49
2022/02/28 05:27:22;;;;;;;52.80;17.15;;;;;;;-0.13;100.00;95235.91;5081903;28;20109;-49
2022/02/28 05:29:49;;;;;;;27.45;13.32;;;;;;;-0.12;100.00;95242.66;5083625;28;20040;-48
2022/02/28 05:32:17;;;;;;;13.93;7.57;;;;;;;-0.02;100.00;95243.31;5082895;28;20052;-48
2022/02/28 05:35:17;;;;;;;19.10;7.70;;;;;;;-0.05;100.00;95241.06;5083764;28;20046;-51
2022/02/28 05:38:10;;;;;;;10.77;6.20;;;;;;;0.00;100.00;95251.66;5082250;28;20059;-47
2022/02/28 05:40:40;;;;;;;13.05;5.68;;;;;;;0.03;100.00;95256.44;5084253;28;20105;-49
2022/02/28 05:43:09;;;;;;;15.50;8.73;;;;;;;0.09;100.00;95255.84;5085554;28;20066;-50
2022/02/28 05:45:38;;;;;;;15.32;6.45;;;;;;;0.12;100.00;95252.94;5082642;28;20044;-48
2022/02/28 05:48:32;;;;;;;12.05;5.60;;;;;;;0.15;100.00;95255.22;5082565;28;20047;-52
2022/02/28 05:50:59;;;;;;;7.45;4.03;;;;;;;0.25;100.00;95269.66;5083675;28;20064;-50
2022/02/28 05:53:26;;;;;;;16.58;8.23;;;;;;;0.18;100.00;95259.22;5084596;28;20080;-47
2022/02/28 05:55:53;;;;;;;17.52;10.20;;;;;;;0.14;100.00;95268.97;5084408;28;20055;-47
2022/02/28 05:58:20;;;;;;;51.15;22.52;;;;;;;0.10;100.00;95257.44;5084514;28;20401;-48
2022/02/28 06:00:46;;;;;;;8.57;5.43;;;;;;;-0.09;100.00;95262.81;5084249;28;20493;-48
2022/02/28 06:03:13;;;;;;;8.85;5.13;;;;;;;-0.28;100.00;95269.78;5083428;28;20127;-48
2022/02/28 06:05:40;;;;;;;8.57;4.40;;;;;;;-0.33;100.00;95276.31;5084072;28;20139;-48
2022/02/28 06:08:07;;;;;;;9.00;4.57;;;;;;;-0.22;100.00;95269.19;5083877;28;20047;-48
2022/02/28 06:10:34;;;;;;;11.57;6.30;;;;;;;-0.28;100.00;95259.53;5084575;28;20056;-46
2022/02/28 06:13:01;;;;;;;12.70;5.28;;;;;;;-0.08;100.00;95272.09;5101089;27;20515;-48
2022/02/28 06:15:30;;;;;;;7.10;2.72;;;;;;;-0.28;100.00;95272.34;5108527;27;20468;-48
2022/02/28 06:18:01;;;;;;;3.03;1.85;;;;;;;-0.47;100.00;95264.88;5109636;27;20047;-48
2022/02/28 06:20:28;;;;;;;7.03;4.13;;;;;;;-0.52;100.00;95272.19;5108531;27;20035;-46
2022/02/28 06:22:55;;;;;;;13.80;6.82;;;;;;;-0.57;100.00;95269.31;5113025;27;20051;-48
2022/02/28 06:25:22;;;;;;;13.90;6.25;;;;;;;-0.43;100.00;95276.44;5109452;27;20433;-51
2022/02/28 06:27:51;;;;;;;8.38;3.90;;;;;;;-0.53;100.00;95283.41;5108238;27;20051;-47
2022/02/28 06:30:21;;;;;;;3.70;2.42;;;;;;;-0.64;100.00;95285.25;5108905;27;20047;-46
2022/02/28 06:32:48;;;;;;;2.85;1.17;;;;;;;-0.85;100.00;95282.22;5109168;27;20043;-47
2022/02/28 06:35:14;;;;;;;1.98;1.58;;;;;;;-0.84;100.00;95284.63;5109154;28;20115;-46
2022/02/28 06:37:41;;;;;;;5.70;2.95;;;;;;;-0.78;100.00;95283.22;5108701;28;20100;-47
2022/02/28 06:40:09;;;;;;;11.25;4.93;;;;;;;-0.68;100.00;95294.19;5108881;28;20036;-48
2022/02/28 06:42:36;;;;;;;7.38;4.65;;;;;;;-0.60;100.00;95283.97;5086187;28;20051;-47
2022/02/28 06:45:04;;;;;;;9.40;4.95;;;;;;;-0.43;100.00;95291.78;5111078;28;20634;-48
2022/02/28 06:47:31;;;;;;;7.45;3.88;;;;;;;-0.44;100.00;95290.16;5108947;28;20494;-49
2022/02/28 06:49:57;;;;;;;19.85;7.97;;;;;;;-0.38;100.00;95292.09;5107440;28;20050;-49
2022/02/28 06:52:25;;;;;;;11.52;5.75;;;;;;;-0.33;100.00;95292.47;5109256;28;20043;-50
2022/02/28 06:54:54;;;;;;;10.05;5.88;;;;;;;-0.33;100.00;95283.97;5107581;28;20036;-48
2022/02/28 06:57:22;;;;;;;7.85;3.58;;;;;;;-0.35;100.00;95289.25;5108913;28;20122;-47
2022/02/28 06:59:49;;;;;;;8.95;4.50;;;;;;;-0.32;100.00;95291.50;5108843;28;20057;-48
2022/02/28 07:02:16;;;;;;;11.50;5.93;;;;;;;-0.18;100.00;95286.78;5084856;28;20047;-47
2022/02/28 07:04:44;;;;;;;5.03;3.30;;;;;;;-0.20;100.00;95282.63;5107628;28;20047;-50
2022/02/28 07:07:14;;;;;;;9.70;4.68;;;;;;;-0.09;100.00;95289.22;5108530;28;21986;-50
2022/02/28 07:09:41;;;;;;;9.98;4.40;;;;;;;0.04;100.00;95287.97;5108268;28;20532;-49
2022/02/28 07:12:10;;;;;;;15.20;7.15;;;;;;;0.28;100.00;95294.97;5110501;28;20059;-49
2022/02/28 07:14:37;;;;;;;7.82;5.72;;;;;;;0.27;100.00;95288.22;5108539;28;20104;-47
2022/02/28 07:17:04;;;;;;;8.77;4.82;;;;;;;0.49;100.00;95292.78;5108683;28;20055;-47
2022/02/28 07:19:33;;;;;;;9.13;4.53;;;;;;;0.11;100.00;95238.56;5112889;28;20042;-50
2022/02/28 07:22:00;;;;;;;10.38;5.45;;;;;;;0.53;100.00;95296.63;5108220;28;20040;-47
2022/02/28 07:24:27;;;;;;;9.77;4.85;;;;;;;0.62;100.00;95291.53;5107931;28;20492;-47
2022/02/28 07:26:54;;;;;;;11.45;5.70;;;;;;;0.70;100.00;95294.09;5108827;28;20119;-52
2022/02/28 07:29:20;;;;;;;15.98;5.68;;;;;;;0.93;100.00;95301.97;5107596;28;20044;-47
2022/02/28 07:31:47;;;;;;;7.68;4.50;;;;;;;1.09;100.00;95303.75;5109004;28;20039;-46
2022/02/28 07:34:14;;;;;;;4.35;2.92;;;;;;;1.20;100.00;95305.19;5108542;28;20436;-48
2022/02/28 07:36:41;;;;;;;4.97;3.05;;;;;;;1.23;100.00;95297.97;5109035;28;20052;-47
2022/02/28 07:39:08;;;;;;;5.95;3.47;;;;;;;1.33;100.00;95311.44;5108775;28;20058;-47
2022/02/28 07:41:35;;;;;;;9.57;3.47;;;;;;;1.32;100.00;95304.69;5086296;28;20047;-48
2022/02/28 07:44:01;;;;;;;7.00;2.80;;;;;;;1.46;100.00;95310.13;5108953;28;20035;-48
2022/02/28 07:46:28;;;;;;;9.05;4.90;;;;;;;1.53;100.00;95306.78;5108717;28;20039;-49
2022/02/28 07:48:55;;;;;;;5.25;3.15;;;;;;;1.51;98.30;95313.03;5108578;27;20052;-49
2022/02/28 07:51:22;;;;;;;3.63;1.98;;;;;;;1.41;97.44;95309.84;5114792;27;20096;-46
2022/02/28 07:53:49;;;;;;;4.30;2.40;;;;;;;1.36;97.62;95315.44;5108942;27;20431;-52
2022/02/28 07:56:15;;;;;;;3.15;2.00;;;;;;;1.38;97.70;95312.72;5109913;27;20052;-48
2022/02/28 07:58:42;;;;;;;3.95;2.10;;;;;;;1.25;98.46;95316.56;5110283;27;20058;-47
2022/02/28 08:01:09;;;;;;;3.63;2.33;;;;;;;0.99;100.00;95319.31;5110606;27;20047;-46
2022/02/28 08:03:36;;;;;;;4.97;2.30;;;;;;;0.99;99.64;95313.34;5109937;27;20125;-47
2022/02/28 08:06:03;;;;;;;3.00;1.83;;;;;;;0.91;100.00;95322.66;5109142;27;20039;-47
2022/02/28 08:08:30;;;;;;;15.25;6.53;;;;;;;0.98;99.98;95329.72;5106838;27;20138;-47
2022/02/28 08:10:56;;;;;;;16.65;4.60;;;;;;;0.83;100.00;95314.97;5107235;27;20036;-47
2022/02/28 08:13:23;;;;;;;6.78;3.92;;;;;;;0.83;100.00;95325.22;5104980;27;20051;-47
2022/02/28 08:15:50;;;;;;;6.07;3.45;;;;;;;0.91;100.00;95327.78;5109950;27;20614;-46
2022/02/28 08:18:17;;;;;;;5.20;2.65;;;;;;;0.84;100.00;95331.94;5091588;27;20035;-52
2022/02/28 08:20:44;;;;;;;3.63;2.33;;;;;;;0.78;100.00;95330.00;5113415;27;20043;-48
2022/02/28 08:23:11;;;;;;;5.88;3.42;;;;;;;0.86;100.00;95324.88;5111068;27;20044;-50
2022/02/28 08:25:39;;;;;;;2.13;1.73;;;;;;;0.91;100.00;95338.03;5110949;27;20063;-48
2022/02/28 08:28:06;;;;;;;4.45;2.00;;;;;;;1.04;100.00;95318.81;5108549;27;20409;-49
2022/02/28 08:30:33;;;;;;;6.43;3.33;;;;;;;1.19;100.00;95329.25;5113412;27;20051;-50
2022/02/28 08:33:02;;;;;;;4.97;2.78;;;;;;;1.22;100.00;95323.78;5110972;27;20036;-49
2022/02/28 08:35:30;;;;;;;5.22;3.67;;;;;;;0.88;100.00;95328.13;5086292;27;20066;-46
2022/02/28 08:37:57;;;;;;;4.75;2.60;;;;;;;1.01;100.00;95326.81;5109432;27;20044;-47
2022/02/28 08:40:24;;;;;;;2.72;1.85;;;;;;;1.07;100.00;95326.19;5108982;27;20104;-48
2022/02/28 08:42:55;;;;;;;5.20;2.58;;;;;;;1.06;100.00;95330.53;5111556;27;20056;-47
2022/02/28 08:45:22;;;;;;;5.55;3.05;;;;;;;1.26;100.00;95330.19;5110040;27;20055;-50
2022/02/28 08:47:50;;;;;;;11.32;6.20;;;;;;;1.33;100.00;95321.72;5108170;27;20047;-46
2022/02/28 08:50:17;;;;;;;14.93;8.77;;;;;;;1.44;100.00;95323.16;5108939;27;20148;-46
2022/02/28 08:52:44;;;;;;;5.35;3.47;;;;;;;1.44;100.00;95330.84;5110398;27;20039;-46
2022/02/28 08:55:12;;;;;;;8.85;4.63;;;;;;;1.38;100.00;95334.06;5109982;27;20134;-46
2022/02/28 08:57:39;;;;;;;4.72;2.65;;;;;;;1.45;100.00;95332.44;5083827;27;20035;-46
2022/02/28 09:00:08;;;;;;;5.32;2.83;;;;;;;1.29;99.69;95335.81;5106587;27;20528;-48
2022/02/28 09:02:37;;;;;;;2.80;1.85;;;;;;;1.27;100.00;95337.75;5108924;27;20043;-50
2022/02/28 09:05:05;;;;;;;5.13;2.38;;;;;;;1.32;100.00;95335.50;5109575;27;20051;-46
2022/02/28 09:07:32;;;;;;;2.75;2.05;;;;;;;1.28;99.93;95329.09;5110333;27;20130;-46
2022/02/28 09:09:59;;;;;;;2.63;1.77;;;;;;;1.02;100.00;95331.00;5109968;27;20067;-46
2022/02/28 09:12:26;;;;;;;2.00;1.40;;;;;;;1.03;99.89;95330.06;5109852;27;21563;-47
2022/02/28 09:14:53;;;;;;;3.08;2.38;;;;;;;1.23;100.00;95346.72;5110410;27;20055;-47
2022/02/28 09:17:20;;;;;;;4.03;2.30;;;;;;;1.24;98.69;95353.47;5108789;27;20209;-47
2022/02/28 09:19:47;;;;;;;4.55;2.58;;;;;;;1.14;97.89;95347.69;5113094;27;20039;-47
2022/02/28 09:22:15;;;;;;;13.40;3.30;;;;;;;1.37;97.86;95357.31;5106682;27;20412;-49
2022/02/28 09:24:42;;;;;;;7.75;4.25;;;;;;;1.60;99.94;95355.69;5104600;27;20035;-48
2022/02/28 09:27:09;;;;;;;18.90;6.28;;;;;;;1.82;96.92;95358.56;5104766;27;20047;-48
2022/02/28 09:29:36;;;;;;;8.85;4.05;;;;;;;1.96;94.16;95363.03;5103041;27;20048;-46
2022/02/28 09:32:03;;;;;;;3.80;2.35;;;;;;;1.83;91.60;95357.59;5103765;27;20044;-46
2022/02/28 09:34:31;;;;;;;9.60;6.03;;;;;;;2.05;93.27;95363.81;5102635;27;20056;-46
2022/02/28 09:36:59;;;;;;;5.10;2.75;;;;;;;2.23;92.54;95358.47;5103652;27;20046;-46
2022/02/28 09:39:28;;;;;;;5.18;2.58;;;;;;;2.21;90.90;95365.53;5101622;27;20078;-45
2022/02/28 09:42:13;;;;;;;7.88;4.93;;;;;;;1.77;91.40;95368.53;5103021;27;20050;-45
2022/02/28 09:44:59;;;;;;;7.97;5.32;;;;;;;1.69;92.85;95370.16;5104226;27;20054;-46
2022/02/28 09:47:52;;;;;;;15.63;7.45;;;;;;;1.70;92.98;95364.03;5103769;27;20043;-47
2022/02/28 09:50:37;;;;;;;7.28;4.80;;;;;;;1.91;92.62;95366.09;5106774;27;20512;-48
2022/02/28 09:53:22;;;;;;;3.35;2.17;;;;;;;1.89;89.79;95369.78;5107175;27;20061;-46
2022/02/28 09:55:49;;;;;;;5.50;2.90;;;;;;;2.01;91.02;95370.25;5107040;27;20058;-46
2022/02/28 09:58:48;;;;;;;4.30;2.60;;;;;;;2.16;90.18;95353.19;5059398;28;20051;-47
2022/02/28 10:01:16;;;;;;;5.53;2.70;;;;;;;2.03;89.93;95353.69;5086854;28;20044;-48
2022/02/28 10:03:46;;;;;;;3.55;2.22;;;;;;;2.01;88.67;95350.50;5115600;27;20139;-46
2022/02/28 10:06:14;;;;;;;6.35;3.75;;;;;;;1.94;87.40;95354.69;5083094;28;20044;-46
2022/02/28 10:08:53;;;;;;;10.02;4.88;;;;;;;1.86;87.58;95362.41;5104410;27;20050;-48
2022/02/28 10:11:34;;;;;;;7.50;4.18;;;;;;;1.67;92.73;95354.06;5082068;28;20066;-46
2022/02/28 10:14:06;;;;;;;4.88;3.17;;;;;;;1.59;96.03;95354.09;5105902;27;20413;-47
2022/02/28 10:16:36;;;;;;;4.35;1.63;;;;;;;1.46;98.06;95348.63;5106529;27;20582;-46
2022/02/28 10:19:08;;;;;;;3.75;1.20;;;;;;;1.52;98.02;95350.56;5102457;27;20405;-46
2022/02/28 10:21:47;;;;;;;8.77;4.50;;;;;;;1.60;100.00;95350.56;5103817;27;20047;-47
2022/02/28 10:24:20;;;;;;;2.67;1.80;;;;;;;1.78;96.40;95350.38;5106897;27;20055;-47
2022/02/28 10:27:00;;;;;;;4.35;2.17;;;;;;;1.79;96.23;95357.13;5087207;27;20043;-48
2022/02/28 10:29:46;;;;;;;4.20;1.45;;;;;;;1.85;95.63;95356.47;5101977;28;20438;-46
2022/02/28 10:32:50;;;;;;;2.60;1.50;;;;;;;1.99;95.76;95352.44;5062152;27;20063;-45
2022/02/28 10:36:21;;;;;;;1.42;1.23;;;;;;;2.02;95.44;95346.97;5099005;28;20193;-47
2022/02/28 10:38:57;;;;;;;3.08;1.92;;;;;;;2.07;97.43;95339.56;5104559;28;20148;-46
2022/02/28 10:41:27;;;;;;;2.13;1.20;;;;;;;2.24;95.67;95342.09;5105279;28;20036;-45
2022/02/28 10:43:56;;;;;;;2.25;1.27;;;;;;;2.01;90.47;95345.34;5104336;28;20124;-46
2022/02/28 10:46:29;;;;;;;5.50;2.63;;;;;;;2.04;91.84;95339.88;5104131;28;20079;-46
2022/02/28 10:49:00;;;;;;;5.18;2.35;;;;;;;2.21;93.14;95339.84;5102931;28;20047;-47
2022/02/28 10:51:27;;;;;;;2.33;1.55;;;;;;;2.28;90.82;95341.56;5104628;28;20044;-46
2022/02/28 10:54:15;;;;;;;2.38;1.35;;;;;;;2.26;90.42;95342.72;5103671;28;20062;-46
2022/02/28 10:57:06;;;;;;;2.15;1.15;;;;;;;2.12;87.20;95335.69;5101096;28;20048;-45
2022/02/28 10:59:51;;;;;;;2.05;1.48;;;;;;;1.76;87.38;95328.41;5102672;28;20108;-47
2022/02/28 11:02:37;;;;;;;2.40;1.52;;;;;;;1.82;87.68;95335.44;5103585;28;20075;-46
2022/02/28 11:05:17;;;;;;;3.65;1.25;;;;;;;1.82;90.89;95340.56;5104017;28;20035;-45
2022/02/28 11:07:47;;;;;;;3.60;1.50;;;;;;;1.98;90.21;95334.59;5103358;28;20063;-46
2022/02/28 11:10:16;;;;;;;3.50;1.63;;;;;;;1.99;85.31;95326.72;5102034;28;20517;-46
2022/02/28 11:12:45;;;;;;;2.80;1.63;;;;;;;2.00;87.51;95330.91;5103594;28;21065;-47
2022/02/28 11:15:15;;;;;;;3.13;1.90;;;;;;;2.18;87.05;95335.03;5101796;28;20054;-46
2022/02/28 11:17:43;;;;;;;4.50;1.85;;;;;;;2.29;88.38;95337.25;5101629;28;20052;-47
2022/02/28 11:20:15;;;;;;;3.15;1.50;;;;;;;2.47;85.67;95337.81;5103465;28;20067;-48
2022/02/28 11:22:46;;;;;;;8.00;2.30;;;;;;;2.60;84.55;95334.69;5101855;28;20067;-46
2022/02/28 11:25:16;;;;;;;6.55;3.28;;;;;;;2.66;82.52;95333.22;5107740;27;20098;-47
2022/02/28 11:27:44;;;;;;;2.33;1.45;;;;;;;2.37;84.63;95334.63;5108535;27;20075;-46
2022/02/28 11:30:16;;;;;;;4.53;2.15;;;;;;;2.20;85.44;95330.53;5107610;27;20039;-46
2022/02/28 11:32:43;;;;;;;2.08;1.00;;;;;;;1.69;89.24;95336.78;5115062;27;20523;-47
2022/02/28 11:35:35;;;;;;;1.50;0.95;;;;;;;1.64;88.39;95333.88;5110516;27;20043;-50
2022/02/28 11:38:09;;;;;;;2.03;1.40;;;;;;;1.90;89.45;95340.56;5115207;27;20051;-48
2022/02/28 11:40:37;;;;;;;6.45;3.38;;;;;;;2.44;89.64;95335.56;5109880;27;20073;-46